createdAt,value
2018-04-25T00:00:59.316Z,9.5
2018-04-25T00:02:06.519Z,9.5
2018-04-25T00:03:13.500Z,9.5
2018-04-25T00:04:20.691Z,9.5
2018-04-25T00:05:27.894Z,9.5
2018-04-25T00:06:35.096Z,9.4
2018-04-25T00:07:42.319Z,9.4
2018-04-25T00:08:49.245Z,9.4
2018-04-25T00:09:56.443Z,9.4
2018-04-25T00:11:03.370Z,9.4
2018-04-25T00:12:10.567Z,9.4
2018-04-25T00:13:17.763Z,9.4
2018-04-25T00:14:24.979Z,9.4
2018-04-25T00:15:32.178Z,9.4
2018-04-25T00:16:39.379Z,9.4
2018-04-25T00:17:46.578Z,9.4
2018-04-25T00:18:53.781Z,9.4
2018-04-25T00:20:00.986Z,9.3
2018-04-25T00:21:08.186Z,9.3
2018-04-25T00:22:15.391Z,9.3
2018-04-25T00:23:22.597Z,9.3
2018-04-25T00:24:29.856Z,9.3
2018-04-25T00:25:37.180Z,9.2
2018-04-25T00:26:44.383Z,9.3
2018-04-25T00:27:51.589Z,9.2
2018-04-25T00:28:58.785Z,9.3
2018-04-25T00:30:05.996Z,9.3
2018-04-25T00:31:13.193Z,9.2
2018-04-25T00:32:20.398Z,9.2
2018-04-25T00:33:27.338Z,9.2
2018-04-25T00:34:34.539Z,9.2
2018-04-25T00:35:41.742Z,9.2
2018-04-25T00:36:48.669Z,9.1
2018-04-25T00:37:55.898Z,9.1
2018-04-25T00:39:03.101Z,9.1
2018-04-25T00:40:10.028Z,9.1
2018-04-25T00:41:17.234Z,9.1
2018-04-25T00:42:24.156Z,9.1
2018-04-25T00:43:31.082Z,9.1
2018-04-25T00:44:38.282Z,9.1
2018-04-25T00:45:45.659Z,9.1
2018-04-25T00:46:52.970Z,9.1
2018-04-25T00:48:00.166Z,9.1
2018-04-25T00:49:07.305Z,9.1
2018-04-25T00:50:14.585Z,9.1
2018-04-25T00:51:21.234Z,9.1
2018-04-25T00:52:28.427Z,9.1
2018-04-25T00:53:35.629Z,9
2018-04-25T00:54:43.052Z,9
2018-04-25T00:55:50.242Z,9
2018-04-25T00:56:57.441Z,9
2018-04-25T00:58:04.381Z,9
2018-04-25T00:59:11.583Z,9
2018-04-25T01:00:18.511Z,9
2018-04-25T01:01:25.709Z,9
2018-04-25T01:02:32.909Z,9
2018-04-25T01:03:40.111Z,9
2018-04-25T01:04:47.311Z,9
2018-04-25T01:05:54.514Z,9
2018-04-25T01:07:01.711Z,9
2018-04-25T01:08:08.636Z,9
2018-04-25T01:09:15.564Z,8.9
2018-04-25T01:10:22.767Z,9
2018-04-25T01:11:29.969Z,8.9
2018-04-25T01:12:37.172Z,8.9
2018-04-25T01:13:44.378Z,8.9
2018-04-25T01:14:51.575Z,8.9
2018-04-25T01:15:58.774Z,8.8
2018-04-25T01:17:05.994Z,8.8
2018-04-25T01:18:13.182Z,8.8
2018-04-25T01:19:20.380Z,8.8
2018-04-25T01:20:27.582Z,8.8
2018-04-25T01:21:34.781Z,8.9
2018-04-25T01:22:41.986Z,8.8
2018-04-25T01:23:49.187Z,8.8
2018-04-25T01:24:56.387Z,8.8
2018-04-25T01:26:03.588Z,8.8
2018-04-25T01:27:10.514Z,8.8
2018-04-25T01:28:17.721Z,8.8
2018-04-25T01:29:24.919Z,8.8
2018-04-25T01:30:32.120Z,8.8
2018-04-25T01:31:39.323Z,8.8
2018-04-25T01:32:46.528Z,8.8
2018-04-25T01:33:53.727Z,8.8
2018-04-25T01:35:00.925Z,8.7
2018-04-25T01:36:08.129Z,8.7
2018-04-25T01:37:15.330Z,8.7
2018-04-25T01:38:22.533Z,8.8
2018-04-25T01:39:29.731Z,8.8
2018-04-25T01:40:36.932Z,8.8
2018-04-25T01:41:44.140Z,8.8
2018-04-25T01:42:51.334Z,8.8
2018-04-25T01:43:57.982Z,8.8
2018-04-25T01:45:05.183Z,8.8
2018-04-25T01:46:12.442Z,8.8
2018-04-25T01:47:19.647Z,8.8
2018-04-25T01:48:26.846Z,8.9
2018-04-25T01:49:33.794Z,8.9
2018-04-25T01:50:40.989Z,8.9
2018-04-25T01:51:48.181Z,8.8
2018-04-25T01:52:55.383Z,8.9
2018-04-25T01:54:02.582Z,8.9
2018-04-25T01:55:09.782Z,8.9
2018-04-25T22:00:06.713Z,11.7
2018-04-25T22:01:13.917Z,11.8
2018-04-25T22:02:21.123Z,11.7
2018-04-25T22:03:28.055Z,11.8
2018-04-25T22:04:35.254Z,11.7
2018-04-25T22:05:42.460Z,11.8
2018-04-25T22:06:49.384Z,11.7
2018-04-25T22:07:56.589Z,11.8
2018-04-25T22:09:03.512Z,11.8
2018-04-25T22:10:10.717Z,11.8
2018-04-25T22:11:17.659Z,11.8
2018-04-25T22:12:24.859Z,11.8
2018-04-25T22:13:32.061Z,11.8
2018-04-25T22:14:39.267Z,11.7
2018-04-25T22:15:46.466Z,11.7
2018-04-25T22:16:53.403Z,11.7
2018-04-25T22:18:00.601Z,11.7
2018-04-25T22:19:07.529Z,11.7
2018-04-25T22:20:14.733Z,11.7
2018-04-25T22:21:21.937Z,11.7
2018-04-25T22:22:29.135Z,11.7
2018-04-25T22:23:36.340Z,11.7
2018-04-25T22:24:43.544Z,11.7
2018-04-25T22:25:50.748Z,11.7
2018-04-25T22:26:57.957Z,11.7
2018-04-25T22:28:05.152Z,11.7
2018-04-25T22:29:12.363Z,11.7
2018-04-25T22:30:19.560Z,11.7
2018-04-25T22:31:26.764Z,11.6
2018-04-25T22:32:33.973Z,11.6
2018-04-25T22:33:41.172Z,11.6
2018-04-25T22:34:48.378Z,11.6
2018-04-25T22:35:55.580Z,11.6
2018-04-25T22:37:02.509Z,11.6
2018-04-25T22:38:09.711Z,11.6
2018-04-25T22:39:16.920Z,11.6
2018-04-25T22:40:24.121Z,11.6
2018-04-25T22:41:31.050Z,11.6
2018-04-25T22:42:38.262Z,11.6
2018-04-25T22:43:45.461Z,11.6
2018-04-25T22:44:52.661Z,11.6
2018-04-25T22:45:59.596Z,11.6
2018-04-25T22:47:06.796Z,11.6
2018-04-25T22:48:13.997Z,11.6
2018-04-25T22:49:21.197Z,11.6
2018-04-25T22:50:28.399Z,11.6
2018-04-25T22:51:35.602Z,11.6
2018-04-25T22:52:42.802Z,11.6
2018-04-25T22:53:49.745Z,11.5
2018-04-25T22:54:56.950Z,11.5
2018-04-25T22:56:04.149Z,11.6
2018-04-25T22:57:11.351Z,11.6
2018-04-25T22:58:18.553Z,11.6
2018-04-25T22:59:25.774Z,11.6
2018-04-25T23:00:32.706Z,11.6
2018-04-25T23:01:39.909Z,11.6
2018-04-25T23:02:46.841Z,11.6
2018-04-25T23:03:54.047Z,11.6
2018-04-25T23:05:01.249Z,11.6
2018-04-25T23:06:08.458Z,11.6
2018-04-25T23:07:15.650Z,11.5
2018-04-25T23:08:23.040Z,11.5
2018-04-25T23:09:30.405Z,11.5
2018-04-25T23:10:37.611Z,11.5
2018-04-25T23:11:44.884Z,11.5
2018-04-25T23:12:52.088Z,11.4
2018-04-25T23:13:59.289Z,11.5
2018-04-25T23:15:06.548Z,11.5
2018-04-25T23:16:13.754Z,11.5
2018-04-25T23:17:20.952Z,11.5
2018-04-25T23:18:28.158Z,11.4
2018-04-25T23:19:35.358Z,11.4
2018-04-25T23:20:42.561Z,11.4
2018-04-25T23:21:49.773Z,11.3
2018-04-25T23:22:56.710Z,11.3
2018-04-25T23:24:03.913Z,11.2
2018-04-25T23:25:11.112Z,11.2
2018-04-25T23:26:18.312Z,11.1
2018-04-25T23:27:25.515Z,11.1
2018-04-25T23:28:32.747Z,11.1
2018-04-25T23:29:39.948Z,11.1
2018-04-25T23:30:47.149Z,11.1
2018-04-25T23:31:54.355Z,11.1
2018-04-25T23:33:01.558Z,11.1
2018-04-25T23:34:08.763Z,11.1
2018-04-25T23:35:16.045Z,11.1
2018-04-25T23:36:23.261Z,11.1
2018-04-25T23:37:30.458Z,11
2018-04-25T23:38:37.674Z,11
2018-04-25T23:39:44.600Z,11
2018-04-25T23:40:51.800Z,11
2018-04-25T23:41:59.002Z,11
2018-04-25T23:43:06.198Z,11
2018-04-25T23:44:13.185Z,10.9
2018-04-25T23:45:20.392Z,10.9
2018-04-25T23:46:27.597Z,10.9
2018-04-25T23:47:34.516Z,10.9
2018-04-25T23:48:41.721Z,10.8
2018-04-25T23:49:48.921Z,10.8
2018-04-25T23:50:56.122Z,10.8
2018-04-25T23:52:03.325Z,10.7
2018-04-25T23:53:10.255Z,10.7
2018-04-25T23:54:17.462Z,10.7
2018-04-25T23:55:24.388Z,10.7
2018-04-25T23:56:31.591Z,10.7
2018-04-25T23:57:38.791Z,10.7
2018-04-25T23:58:45.991Z,10.7
2018-04-25T23:59:52.923Z,10.7
